sensor_id;sensor_type;location;lat;lon;timestamp;temperature;humidity
10300;DHT22;5195;48.562;9.192;2022-08-19T00:01:14;24.70;57.30
10300;DHT22;5195;48.562;9.192;2022-08-19T00:03:41;24.70;58.30
10300;DHT22;5195;48.562;9.192;2022-08-19T00:06:07;24.90;57.90
10300;DHT22;5195;48.562;9.192;2022-08-19T00:08:32;24.70;57.60
10300;DHT22;5195;48.562;9.192;2022-08-19T00:10:58;24.60;58.30
10300;DHT22;5195;48.562;9.192;2022-08-19T00:13:23;24.70;57.90
10300;DHT22;5195;48.562;9.192;2022-08-19T00:15:49;24.50;57.80
10300;DHT22;5195;48.562;9.192;2022-08-19T00:18:14;24.50;57.80
10300;DHT22;5195;48.562;9.192;2022-08-19T00:20:40;24.60;58.30
10300;DHT22;5195;48.562;9.192;2022-08-19T00:23:06;24.40;57.90
10300;DHT22;5195;48.562;9.192;2022-08-19T00:25:31;24.40;58.30
10300;DHT22;5195;48.562;9.192;2022-08-19T00:27:58;24.20;58.20
10300;DHT22;5195;48.562;9.192;2022-08-19T00:30:22;24.20;58.30
10300;DHT22;5195;48.562;9.192;2022-08-19T00:32:48;23.80;58.60
10300;DHT22;5195;48.562;9.192;2022-08-19T00:35:14;23.70;58.50
10300;DHT22;5195;48.562;9.192;2022-08-19T00:37:40;23.70;60.50
10300;DHT22;5195;48.562;9.192;2022-08-19T00:40:09;23.60;59.80
10300;DHT22;5195;48.562;9.192;2022-08-19T00:42:33;23.90;59.50
10300;DHT22;5195;48.562;9.192;2022-08-19T00:44:59;24.10;59.10
10300;DHT22;5195;48.562;9.192;2022-08-19T00:47:24;24.20;59.20
10300;DHT22;5195;48.562;9.192;2022-08-19T00:49:51;24.30;59.00
10300;DHT22;5195;48.562;9.192;2022-08-19T00:52:26;24.10;58.90
10300;DHT22;5195;48.562;9.192;2022-08-19T00:54:51;23.80;59.50
10300;DHT22;5195;48.562;9.192;2022-08-19T00:57:17;23.40;59.90
10300;DHT22;5195;48.562;9.192;2022-08-19T00:59:43;23.60;61.00
10300;DHT22;5195;48.562;9.192;2022-08-19T01:02:07;23.90;60.60
10300;DHT22;5195;48.562;9.192;2022-08-19T01:04:33;24.10;58.80
10300;DHT22;5195;48.562;9.192;2022-08-19T01:06:59;24.30;59.30
10300;DHT22;5195;48.562;9.192;2022-08-19T01:09:24;24.10;59.00
10300;DHT22;5195;48.562;9.192;2022-08-19T01:11:50;23.70;59.20
10300;DHT22;5195;48.562;9.192;2022-08-19T01:14:15;23.80;60.20
10300;DHT22;5195;48.562;9.192;2022-08-19T01:16:42;23.40;60.00
10300;DHT22;5195;48.562;9.192;2022-08-19T01:19:12;23.40;60.00
10300;DHT22;5195;48.562;9.192;2022-08-19T01:21:45;23.20;60.40
10300;DHT22;5195;48.562;9.192;2022-08-19T01:24:09;23.00;60.30
10300;DHT22;5195;48.562;9.192;2022-08-19T01:26:40;22.70;60.20
10300;DHT22;5195;48.562;9.192;2022-08-19T01:29:04;22.60;60.10
10300;DHT22;5195;48.562;9.192;2022-08-19T01:31:30;22.90;60.80
10300;DHT22;5195;48.562;9.192;2022-08-19T01:33:56;23.30;59.30
10300;DHT22;5195;48.562;9.192;2022-08-19T01:36:24;23.40;59.90
10300;DHT22;5195;48.562;9.192;2022-08-19T01:38:47;23.30;59.90
10300;DHT22;5195;48.562;9.192;2022-08-19T01:41:13;23.30;59.70
10300;DHT22;5195;48.562;9.192;2022-08-19T01:43:38;23.10;59.80
10300;DHT22;5195;48.562;9.192;2022-08-19T01:46:04;23.20;59.40
10300;DHT22;5195;48.562;9.192;2022-08-19T01:48:37;23.20;59.10
10300;DHT22;5195;48.562;9.192;2022-08-19T01:51:01;23.30;59.30
10300;DHT22;5195;48.562;9.192;2022-08-19T01:53:27;23.30;59.00
10300;DHT22;5195;48.562;9.192;2022-08-19T01:55:52;23.10;59.30
10300;DHT22;5195;48.562;9.192;2022-08-19T01:58:19;23.20;59.70
10300;DHT22;5195;48.562;9.192;2022-08-19T02:00:43;23.50;58.90
10300;DHT22;5195;48.562;9.192;2022-08-19T02:03:10;23.60;57.70
10300;DHT22;5195;48.562;9.192;2022-08-19T02:05:35;23.50;57.50
10300;DHT22;5195;48.562;9.192;2022-08-19T02:08:01;23.30;58.10
10300;DHT22;5195;48.562;9.192;2022-08-19T02:10:26;23.00;58.40
10300;DHT22;5195;48.562;9.192;2022-08-19T02:12:52;22.80;58.70
10300;DHT22;5195;48.562;9.192;2022-08-19T02:15:18;23.10;59.10
10300;DHT22;5195;48.562;9.192;2022-08-19T02:17:43;23.40;58.60
10300;DHT22;5195;48.562;9.192;2022-08-19T02:20:09;23.30;58.50
10300;DHT22;5195;48.562;9.192;2022-08-19T02:22:34;23.10;59.00
10300;DHT22;5195;48.562;9.192;2022-08-19T02:25:00;23.30;59.50
10300;DHT22;5195;48.562;9.192;2022-08-19T02:27:26;23.20;59.20
10300;DHT22;5195;48.562;9.192;2022-08-19T02:29:51;23.00;59.40
10300;DHT22;5195;48.562;9.192;2022-08-19T02:32:17;22.80;59.80
10300;DHT22;5195;48.562;9.192;2022-08-19T02:34:42;23.00;60.50
10300;DHT22;5195;48.562;9.192;2022-08-19T02:37:09;23.20;59.60
10300;DHT22;5195;48.562;9.192;2022-08-19T02:39:37;23.20;59.60
10300;DHT22;5195;48.562;9.192;2022-08-19T02:42:02;23.30;59.70
10300;DHT22;5195;48.562;9.192;2022-08-19T02:44:28;23.20;59.60
10300;DHT22;5195;48.562;9.192;2022-08-19T02:46:53;23.20;59.60
10300;DHT22;5195;48.562;9.192;2022-08-19T02:49:19;23.50;60.00
10300;DHT22;5195;48.562;9.192;2022-08-19T02:51:45;23.50;59.00
10300;DHT22;5195;48.562;9.192;2022-08-19T02:54:11;23.50;58.80
10300;DHT22;5195;48.562;9.192;2022-08-19T02:56:37;23.50;59.10
10300;DHT22;5195;48.562;9.192;2022-08-19T02:59:03;23.60;58.80
10300;DHT22;5195;48.562;9.192;2022-08-19T03:01:29;23.40;58.80
10300;DHT22;5195;48.562;9.192;2022-08-19T03:03:53;23.10;59.40
10300;DHT22;5195;48.562;9.192;2022-08-19T03:06:20;22.80;59.90
10300;DHT22;5195;48.562;9.192;2022-08-19T03:08:46;22.60;60.30
10300;DHT22;5195;48.562;9.192;2022-08-19T03:11:16;22.30;61.00
10300;DHT22;5195;48.562;9.192;2022-08-19T03:13:40;22.30;61.00
10300;DHT22;5195;48.562;9.192;2022-08-19T03:16:06;22.60;62.00
10300;DHT22;5195;48.562;9.192;2022-08-19T03:18:32;22.40;62.20
10300;DHT22;5195;48.562;9.192;2022-08-19T03:20:58;22.40;61.50
10300;DHT22;5195;48.562;9.192;2022-08-19T03:23:24;22.50;62.00
10300;DHT22;5195;48.562;9.192;2022-08-19T03:25:50;22.50;62.00
10300;DHT22;5195;48.562;9.192;2022-08-19T03:28:15;22.60;61.60
10300;DHT22;5195;48.562;9.192;2022-08-19T03:30:41;22.50;61.80
10300;DHT22;5195;48.562;9.192;2022-08-19T03:33:07;22.30;62.00
10300;DHT22;5195;48.562;9.192;2022-08-19T03:35:32;22.60;62.20
10300;DHT22;5195;48.562;9.192;2022-08-19T03:37:59;22.90;61.40
10300;DHT22;5195;48.562;9.192;2022-08-19T03:40:25;22.90;61.10
10300;DHT22;5195;48.562;9.192;2022-08-19T03:42:50;22.70;61.40
10300;DHT22;5195;48.562;9.192;2022-08-19T03:45:15;22.40;61.70
10300;DHT22;5195;48.562;9.192;2022-08-19T03:47:41;22.30;62.10
10300;DHT22;5195;48.562;9.192;2022-08-19T03:50:07;22.60;61.70
10300;DHT22;5195;48.562;9.192;2022-08-19T03:52:32;22.60;61.50
10300;DHT22;5195;48.562;9.192;2022-08-19T03:54:58;22.50;61.70
10300;DHT22;5195;48.562;9.192;2022-08-19T03:57:23;22.40;61.80
10300;DHT22;5195;48.562;9.192;2022-08-19T03:59:49;22.60;62.00
10300;DHT22;5195;48.562;9.192;2022-08-19T04:02:14;23.00;60.90
10300;DHT22;5195;48.562;9.192;2022-08-19T04:04:41;23.30;60.40
10300;DHT22;5195;48.562;9.192;2022-08-19T04:07:06;23.50;59.80
10300;DHT22;5195;48.562;9.192;2022-08-19T04:09:33;23.30;59.80
10300;DHT22;5195;48.562;9.192;2022-08-19T04:11:57;23.30;59.30
10300;DHT22;5195;48.562;9.192;2022-08-19T04:14:25;23.30;59.90
10300;DHT22;5195;48.562;9.192;2022-08-19T04:16:49;23.30;59.90
10300;DHT22;5195;48.562;9.192;2022-08-19T04:19:15;23.20;59.90
10300;DHT22;5195;48.562;9.192;2022-08-19T04:21:40;22.90;60.20
10300;DHT22;5195;48.562;9.192;2022-08-19T04:24:05;23.00;59.80
10300;DHT22;5195;48.562;9.192;2022-08-19T04:26:32;23.30;59.20
10300;DHT22;5195;48.562;9.192;2022-08-19T04:29:04;23.60;58.50
10300;DHT22;5195;48.562;9.192;2022-08-19T04:31:26;23.40;58.40
10300;DHT22;5195;48.562;9.192;2022-08-19T04:33:58;23.10;58.90
10300;DHT22;5195;48.562;9.192;2022-08-19T04:36:27;22.90;59.50
10300;DHT22;5195;48.562;9.192;2022-08-19T04:38:49;22.60;59.90
10300;DHT22;5195;48.562;9.192;2022-08-19T04:41:14;22.80;60.40
10300;DHT22;5195;48.562;9.192;2022-08-19T04:43:59;23.10;59.90
10300;DHT22;5195;48.562;9.192;2022-08-19T04:46:25;23.00;59.80
10300;DHT22;5195;48.562;9.192;2022-08-19T04:48:51;23.10;59.40
10300;DHT22;5195;48.562;9.192;2022-08-19T04:51:17;23.00;59.40
10300;DHT22;5195;48.562;9.192;2022-08-19T04:53:42;23.10;59.50
10300;DHT22;5195;48.562;9.192;2022-08-19T04:56:12;23.00;59.40
10300;DHT22;5195;48.562;9.192;2022-08-19T04:58:37;22.70;59.70
10300;DHT22;5195;48.562;9.192;2022-08-19T05:01:03;22.80;59.50
10300;DHT22;5195;48.562;9.192;2022-08-19T05:03:30;22.80;59.50
10300;DHT22;5195;48.562;9.192;2022-08-19T05:06:06;22.90;59.60
10300;DHT22;5195;48.562;9.192;2022-08-19T05:08:32;22.90;59.50
10300;DHT22;5195;48.562;9.192;2022-08-19T05:10:58;22.70;60.00
10300;DHT22;5195;48.562;9.192;2022-08-19T05:13:24;22.30;60.80
10300;DHT22;5195;48.562;9.192;2022-08-19T05:15:53;22.30;60.70
10300;DHT22;5195;48.562;9.192;2022-08-19T05:18:19;22.50;61.10
10300;DHT22;5195;48.562;9.192;2022-08-19T05:21:08;22.50;61.10
10300;DHT22;5195;48.562;9.192;2022-08-19T05:23:53;22.70;60.60
10300;DHT22;5195;48.562;9.192;2022-08-19T05:26:19;22.70;60.60
10300;DHT22;5195;48.562;9.192;2022-08-19T05:28:45;22.50;60.80
10300;DHT22;5195;48.562;9.192;2022-08-19T05:31:10;22.60;60.90
10300;DHT22;5195;48.562;9.192;2022-08-19T05:33:36;23.00;60.30
10300;DHT22;5195;48.562;9.192;2022-08-19T05:36:01;22.90;60.00
10300;DHT22;5195;48.562;9.192;2022-08-19T05:38:27;23.00;59.60
10300;DHT22;5195;48.562;9.192;2022-08-19T05:40:52;22.90;59.70
10300;DHT22;5195;48.562;9.192;2022-08-19T05:43:18;23.00;59.50
10300;DHT22;5195;48.562;9.192;2022-08-19T05:45:45;23.10;59.10
10300;DHT22;5195;48.562;9.192;2022-08-19T05:48:10;23.10;59.10
10300;DHT22;5195;48.562;9.192;2022-08-19T05:50:37;23.60;58.10
10300;DHT22;5195;48.562;9.192;2022-08-19T05:53:02;23.60;58.10
10300;DHT22;5195;48.562;9.192;2022-08-19T05:55:27;23.40;58.00
10300;DHT22;5195;48.562;9.192;2022-08-19T05:57:53;23.50;58.00
10300;DHT22;5195;48.562;9.192;2022-08-19T06:00:19;23.80;57.40
10300;DHT22;5195;48.562;9.192;2022-08-19T06:02:45;23.80;57.30
10300;DHT22;5195;48.562;9.192;2022-08-19T06:05:12;23.90;57.70
10300;DHT22;5195;48.562;9.192;2022-08-19T06:07:39;23.30;57.60
10300;DHT22;5195;48.562;9.192;2022-08-19T06:10:04;23.30;58.10
10300;DHT22;5195;48.562;9.192;2022-08-19T06:12:30;23.30;58.30
10300;DHT22;5195;48.562;9.192;2022-08-19T06:14:55;23.50;58.10
10300;DHT22;5195;48.562;9.192;2022-08-19T06:17:20;23.70;57.90
10300;DHT22;5195;48.562;9.192;2022-08-19T06:19:46;23.50;58.00
10300;DHT22;5195;48.562;9.192;2022-08-19T06:22:11;23.20;58.50
10300;DHT22;5195;48.562;9.192;2022-08-19T06:24:37;23.30;58.80
10300;DHT22;5195;48.562;9.192;2022-08-19T06:27:03;23.50;58.30
10300;DHT22;5195;48.562;9.192;2022-08-19T06:29:28;23.70;58.70
10300;DHT22;5195;48.562;9.192;2022-08-19T06:31:56;23.40;58.50
10300;DHT22;5195;48.562;9.192;2022-08-19T06:34:21;23.10;59.30
10300;DHT22;5195;48.562;9.192;2022-08-19T06:36:47;23.20;60.40
10300;DHT22;5195;48.562;9.192;2022-08-19T06:39:16;23.00;60.20
10300;DHT22;5195;48.562;9.192;2022-08-19T06:41:39;23.10;61.20
10300;DHT22;5195;48.562;9.192;2022-08-19T06:44:04;23.10;61.40
10300;DHT22;5195;48.562;9.192;2022-08-19T06:46:30;23.10;61.40
10300;DHT22;5195;48.562;9.192;2022-08-19T06:48:56;23.00;61.30
10300;DHT22;5195;48.562;9.192;2022-08-19T06:51:21;23.00;61.30
10300;DHT22;5195;48.562;9.192;2022-08-19T06:53:47;23.00;61.30
10300;DHT22;5195;48.562;9.192;2022-08-19T06:56:13;22.80;61.80
10300;DHT22;5195;48.562;9.192;2022-08-19T06:58:39;22.80;61.80
10300;DHT22;5195;48.562;9.192;2022-08-19T07:01:04;22.90;61.80
10300;DHT22;5195;48.562;9.192;2022-08-19T07:03:32;23.00;62.30
10300;DHT22;5195;48.562;9.192;2022-08-19T07:05:57;23.30;61.70
10300;DHT22;5195;48.562;9.192;2022-08-19T07:08:22;23.50;61.00
10300;DHT22;5195;48.562;9.192;2022-08-19T07:10:48;23.30;61.00
10300;DHT22;5195;48.562;9.192;2022-08-19T07:13:13;23.30;61.60
10300;DHT22;5195;48.562;9.192;2022-08-19T07:15:39;23.20;61.60
10300;DHT22;5195;48.562;9.192;2022-08-19T07:18:04;23.30;61.80
10300;DHT22;5195;48.562;9.192;2022-08-19T07:20:30;23.20;61.70
10300;DHT22;5195;48.562;9.192;2022-08-19T07:22:56;23.30;61.20
10300;DHT22;5195;48.562;9.192;2022-08-19T07:25:21;23.10;61.00
10300;DHT22;5195;48.562;9.192;2022-08-19T07:27:50;23.20;61.00
10300;DHT22;5195;48.562;9.192;2022-08-19T07:30:16;23.20;61.30
10300;DHT22;5195;48.562;9.192;2022-08-19T07:32:42;23.20;61.30
10300;DHT22;5195;48.562;9.192;2022-08-19T07:35:08;23.10;61.30
10300;DHT22;5195;48.562;9.192;2022-08-19T07:37:33;23.20;61.80
10300;DHT22;5195;48.562;9.192;2022-08-19T07:40:00;23.20;61.20
10300;DHT22;5195;48.562;9.192;2022-08-19T07:42:25;23.20;61.20
10300;DHT22;5195;48.562;9.192;2022-08-19T07:44:51;23.10;61.00
10300;DHT22;5195;48.562;9.192;2022-08-19T07:47:16;23.20;61.00
10300;DHT22;5195;48.562;9.192;2022-08-19T07:49:42;23.10;60.80
10300;DHT22;5195;48.562;9.192;2022-08-19T07:52:08;23.20;60.80
10300;DHT22;5195;48.562;9.192;2022-08-19T07:54:35;23.20;60.90
10300;DHT22;5195;48.562;9.192;2022-08-19T07:57:00;23.20;60.80
10300;DHT22;5195;48.562;9.192;2022-08-19T07:59:25;23.10;60.70
10300;DHT22;5195;48.562;9.192;2022-08-19T08:01:50;23.20;61.30
10300;DHT22;5195;48.562;9.192;2022-08-19T08:04:18;23.30;60.80
10300;DHT22;5195;48.562;9.192;2022-08-19T08:07:03;23.40;60.50
10300;DHT22;5195;48.562;9.192;2022-08-19T08:09:48;23.20;60.90
10300;DHT22;5195;48.562;9.192;2022-08-19T08:12:26;22.90;62.60
10300;DHT22;5195;48.562;9.192;2022-08-19T08:15:01;22.90;62.00
10300;DHT22;5195;48.562;9.192;2022-08-19T08:17:36;23.20;61.70
10300;DHT22;5195;48.562;9.192;2022-08-19T08:20:12;23.00;61.60
10300;DHT22;5195;48.562;9.192;2022-08-19T08:22:47;23.00;62.10
10300;DHT22;5195;48.562;9.192;2022-08-19T08:25:42;23.20;61.90
10300;DHT22;5195;48.562;9.192;2022-08-19T08:28:19;23.00;62.00
10300;DHT22;5195;48.562;9.192;2022-08-19T08:30:54;22.70;62.70
10300;DHT22;5195;48.562;9.192;2022-08-19T08:33:30;22.80;62.50
10300;DHT22;5195;48.562;9.192;2022-08-19T08:36:06;22.70;62.40
10300;DHT22;5195;48.562;9.192;2022-08-19T08:38:42;22.50;62.70
10300;DHT22;5195;48.562;9.192;2022-08-19T08:41:40;22.70;62.50
10300;DHT22;5195;48.562;9.192;2022-08-19T08:44:27;22.70;62.20
10300;DHT22;5195;48.562;9.192;2022-08-19T08:46:59;22.40;62.50
10300;DHT22;5195;48.562;9.192;2022-08-19T08:52:17;22.10;63.40
10300;DHT22;5195;48.562;9.192;2022-08-19T08:54:45;22.00;63.80
10300;DHT22;5195;48.562;9.192;2022-08-19T08:57:28;21.90;64.20
10300;DHT22;5195;48.562;9.192;2022-08-19T09:00:00;21.90;64.50
10300;DHT22;5195;48.562;9.192;2022-08-19T09:02:36;21.90;64.60
10300;DHT22;5195;48.562;9.192;2022-08-19T09:05:11;22.20;64.90
10300;DHT22;5195;48.562;9.192;2022-08-19T09:07:53;22.30;64.20
10300;DHT22;5195;48.562;9.192;2022-08-19T09:16:02;22.70;63.00
10300;DHT22;5195;48.562;9.192;2022-08-19T09:18:51;22.70;63.00
10300;DHT22;5195;48.562;9.192;2022-08-19T09:21:20;22.60;62.80
10300;DHT22;5195;48.562;9.192;2022-08-19T09:23:55;22.40;63.20
10300;DHT22;5195;48.562;9.192;2022-08-19T09:26:31;22.50;62.40
10300;DHT22;5195;48.562;9.192;2022-08-19T09:29:06;22.80;61.70
10300;DHT22;5195;48.562;9.192;2022-08-19T09:31:42;22.70;61.50
10300;DHT22;5195;48.562;9.192;2022-08-19T09:34:18;22.50;62.00
10300;DHT22;5195;48.562;9.192;2022-08-19T09:36:54;22.30;62.40
10300;DHT22;5195;48.562;9.192;2022-08-19T09:39:29;22.50;62.10
10300;DHT22;5195;48.562;9.192;2022-08-19T09:42:05;22.90;61.00
10300;DHT22;5195;48.562;9.192;2022-08-19T09:44:41;22.90;61.10
10300;DHT22;5195;48.562;9.192;2022-08-19T09:47:18;22.90;61.80
10300;DHT22;5195;48.562;9.192;2022-08-19T09:49:53;22.90;61.80
10300;DHT22;5195;48.562;9.192;2022-08-19T09:52:30;22.90;62.10
10300;DHT22;5195;48.562;9.192;2022-08-19T09:55:07;22.80;62.10
10300;DHT22;5195;48.562;9.192;2022-08-19T09:57:42;23.20;61.50
10300;DHT22;5195;48.562;9.192;2022-08-19T10:00:18;23.10;61.40
10300;DHT22;5195;48.562;9.192;2022-08-19T10:02:53;23.20;61.80
10300;DHT22;5195;48.562;9.192;2022-08-19T10:05:29;23.50;61.20
10300;DHT22;5195;48.562;9.192;2022-08-19T10:08:30;23.50;61.10
10300;DHT22;5195;48.562;9.192;2022-08-19T10:11:04;23.30;61.50
10300;DHT22;5195;48.562;9.192;2022-08-19T10:13:39;23.30;62.80
10300;DHT22;5195;48.562;9.192;2022-08-19T10:16:17;23.10;62.60
10300;DHT22;5195;48.562;9.192;2022-08-19T10:18:52;23.00;63.90
10300;DHT22;5195;48.562;9.192;2022-08-19T10:21:28;22.90;63.80
10300;DHT22;5195;48.562;9.192;2022-08-19T10:24:03;23.20;62.40
10300;DHT22;5195;48.562;9.192;2022-08-19T10:26:39;23.40;62.00
10300;DHT22;5195;48.562;9.192;2022-08-19T10:29:25;23.60;60.80
10300;DHT22;5195;48.562;9.192;2022-08-19T10:31:50;23.50;61.30
10300;DHT22;5195;48.562;9.192;2022-08-19T10:34:16;23.10;62.00
10300;DHT22;5195;48.562;9.192;2022-08-19T10:36:43;22.90;62.80
10300;DHT22;5195;48.562;9.192;2022-08-19T10:39:10;23.00;62.30
10300;DHT22;5195;48.562;9.192;2022-08-19T10:41:37;22.90;62.10
10300;DHT22;5195;48.562;9.192;2022-08-19T10:44:09;22.70;62.90
10300;DHT22;5195;48.562;9.192;2022-08-19T10:46:35;22.80;64.40
10300;DHT22;5195;48.562;9.192;2022-08-19T10:49:00;23.10;64.20
10300;DHT22;5195;48.562;9.192;2022-08-19T10:51:25;23.00;63.80
10300;DHT22;5195;48.562;9.192;2022-08-19T10:54:11;22.80;64.30
10300;DHT22;5195;48.562;9.192;2022-08-19T10:56:36;23.00;64.30
10300;DHT22;5195;48.562;9.192;2022-08-19T10:59:19;22.90;63.90
10300;DHT22;5195;48.562;9.192;2022-08-19T11:01:47;23.20;63.20
10300;DHT22;5195;48.562;9.192;2022-08-19T11:04:14;23.20;63.10
10300;DHT22;5195;48.562;9.192;2022-08-19T11:06:40;23.40;62.80
10300;DHT22;5195;48.562;9.192;2022-08-19T11:09:06;23.20;62.80
10300;DHT22;5195;48.562;9.192;2022-08-19T11:11:33;23.20;62.60
10300;DHT22;5195;48.562;9.192;2022-08-19T11:13:58;23.00;62.90
10300;DHT22;5195;48.562;9.192;2022-08-19T11:16:26;22.80;63.80
10300;DHT22;5195;48.562;9.192;2022-08-19T11:18:52;22.90;64.50
10300;DHT22;5195;48.562;9.192;2022-08-19T11:21:19;22.90;63.50
10300;DHT22;5195;48.562;9.192;2022-08-19T11:23:43;22.90;63.40
10300;DHT22;5195;48.562;9.192;2022-08-19T11:26:08;23.20;63.90
10300;DHT22;5195;48.562;9.192;2022-08-19T11:28:34;23.10;63.70
10300;DHT22;5195;48.562;9.192;2022-08-19T11:30:59;22.80;64.10
10300;DHT22;5195;48.562;9.192;2022-08-19T11:33:25;22.60;64.60
10300;DHT22;5195;48.562;9.192;2022-08-19T11:35:51;22.50;65.10
10300;DHT22;5195;48.562;9.192;2022-08-19T11:38:16;22.70;65.40
10300;DHT22;5195;48.562;9.192;2022-08-19T11:40:42;23.00;65.50
10300;DHT22;5195;48.562;9.192;2022-08-19T11:43:07;23.00;64.60
10300;DHT22;5195;48.562;9.192;2022-08-19T11:45:33;23.00;64.30
10300;DHT22;5195;48.562;9.192;2022-08-19T11:47:58;23.00;64.40
10300;DHT22;5195;48.562;9.192;2022-08-19T11:50:25;22.80;64.90
10300;DHT22;5195;48.562;9.192;2022-08-19T11:52:55;22.60;65.50
10300;DHT22;5195;48.562;9.192;2022-08-19T11:55:20;22.40;65.80
10300;DHT22;5195;48.562;9.192;2022-08-19T11:57:46;22.30;66.80
10300;DHT22;5195;48.562;9.192;2022-08-19T12:00:13;22.50;68.20
10300;DHT22;5195;48.562;9.192;2022-08-19T12:02:39;22.60;67.00
10300;DHT22;5195;48.562;9.192;2022-08-19T12:05:05;22.60;67.00
10300;DHT22;5195;48.562;9.192;2022-08-19T12:07:31;23.20;64.80
10300;DHT22;5195;48.562;9.192;2022-08-19T12:09:57;23.20;64.70
10300;DHT22;5195;48.562;9.192;2022-08-19T12:12:22;23.50;63.70
10300;DHT22;5195;48.562;9.192;2022-08-19T12:14:48;23.70;63.50
10300;DHT22;5195;48.562;9.192;2022-08-19T12:17:13;23.50;63.60
10300;DHT22;5195;48.562;9.192;2022-08-19T12:19:39;23.30;64.30
10300;DHT22;5195;48.562;9.192;2022-08-19T12:22:05;23.20;64.20
10300;DHT22;5195;48.562;9.192;2022-08-19T12:24:31;23.20;64.20
10300;DHT22;5195;48.562;9.192;2022-08-19T12:38:06;23.80;64.10
10300;DHT22;5195;48.562;9.192;2022-08-19T12:40:33;23.40;65.60
10300;DHT22;5195;48.562;9.192;2022-08-19T12:42:59;23.40;65.40
10300;DHT22;5195;48.562;9.192;2022-08-19T12:45:24;23.50;65.10
10300;DHT22;5195;48.562;9.192;2022-08-19T12:47:50;23.70;64.30
10300;DHT22;5195;48.562;9.192;2022-08-19T12:50:15;23.90;62.50
10300;DHT22;5195;48.562;9.192;2022-08-19T12:52:41;24.00;62.00
10300;DHT22;5195;48.562;9.192;2022-08-19T12:55:07;24.10;62.30
10300;DHT22;5195;48.562;9.192;2022-08-19T12:57:34;24.20;61.90
10300;DHT22;5195;48.562;9.192;2022-08-19T13:02:32;23.50;63.00
10300;DHT22;5195;48.562;9.192;2022-08-19T13:05:00;23.50;62.70
10300;DHT22;5195;48.562;9.192;2022-08-19T13:07:26;23.70;62.70
10300;DHT22;5195;48.562;9.192;2022-08-19T13:09:51;23.90;62.50
10300;DHT22;5195;48.562;9.192;2022-08-19T13:12:17;23.80;62.80
10300;DHT22;5195;48.562;9.192;2022-08-19T13:14:43;23.80;62.40
10300;DHT22;5195;48.562;9.192;2022-08-19T13:17:08;23.60;62.60
10300;DHT22;5195;48.562;9.192;2022-08-19T13:19:35;23.40;63.40
10300;DHT22;5195;48.562;9.192;2022-08-19T13:21:59;23.20;64.20
10300;DHT22;5195;48.562;9.192;2022-08-19T13:24:25;23.30;65.00
10300;DHT22;5195;48.562;9.192;2022-08-19T13:26:51;23.30;64.90
10300;DHT22;5195;48.562;9.192;2022-08-19T13:29:18;23.40;64.00
10300;DHT22;5195;48.562;9.192;2022-08-19T13:32:04;23.60;63.00
10300;DHT22;5195;48.562;9.192;2022-08-19T13:34:49;23.40;63.20
10300;DHT22;5195;48.562;9.192;2022-08-19T13:37:17;23.20;64.20
10300;DHT22;5195;48.562;9.192;2022-08-19T13:39:44;23.10;64.10
10300;DHT22;5195;48.562;9.192;2022-08-19T13:42:10;23.00;63.90
10300;DHT22;5195;48.562;9.192;2022-08-19T13:44:35;23.10;64.50
10300;DHT22;5195;48.562;9.192;2022-08-19T13:47:02;22.90;64.60
10300;DHT22;5195;48.562;9.192;2022-08-19T13:49:27;22.70;65.60
10300;DHT22;5195;48.562;9.192;2022-08-19T13:51:52;22.40;66.50
10300;DHT22;5195;48.562;9.192;2022-08-19T13:54:17;22.60;68.10
10300;DHT22;5195;48.562;9.192;2022-08-19T13:56:44;22.60;68.40
10300;DHT22;5195;48.562;9.192;2022-08-19T13:59:09;22.50;68.20
10300;DHT22;5195;48.562;9.192;2022-08-19T14:01:34;22.40;68.40
10300;DHT22;5195;48.562;9.192;2022-08-19T14:04:00;22.30;68.60
10300;DHT22;5195;48.562;9.192;2022-08-19T14:06:25;22.20;68.80
10300;DHT22;5195;48.562;9.192;2022-08-19T14:08:52;22.50;67.10
10300;DHT22;5195;48.562;9.192;2022-08-19T14:11:17;22.50;67.00
10300;DHT22;5195;48.562;9.192;2022-08-19T14:13:43;22.40;67.30
10300;DHT22;5195;48.562;9.192;2022-08-19T14:16:09;22.60;66.10
10300;DHT22;5195;48.562;9.192;2022-08-19T14:18:34;22.60;65.70
10300;DHT22;5195;48.562;9.192;2022-08-19T14:21:00;22.80;64.40
10300;DHT22;5195;48.562;9.192;2022-08-19T14:23:25;23.10;65.40
10300;DHT22;5195;48.562;9.192;2022-08-19T14:25:51;23.40;64.70
10300;DHT22;5195;48.562;9.192;2022-08-19T14:28:17;23.60;63.50
10300;DHT22;5195;48.562;9.192;2022-08-19T14:30:43;23.60;63.50
10300;DHT22;5195;48.562;9.192;2022-08-19T14:33:08;23.40;63.70
10300;DHT22;5195;48.562;9.192;2022-08-19T14:35:34;23.10;64.50
10300;DHT22;5195;48.562;9.192;2022-08-19T14:38:00;22.90;65.20
10300;DHT22;5195;48.562;9.192;2022-08-19T14:40:26;23.00;65.00
10300;DHT22;5195;48.562;9.192;2022-08-19T14:42:54;23.20;65.10
10300;DHT22;5195;48.562;9.192;2022-08-19T14:45:19;23.40;63.70
10300;DHT22;5195;48.562;9.192;2022-08-19T14:47:55;23.60;62.60
10300;DHT22;5195;48.562;9.192;2022-08-19T14:50:31;23.30;62.90
10300;DHT22;5195;48.562;9.192;2022-08-19T14:53:07;23.30;63.30
10300;DHT22;5195;48.562;9.192;2022-08-19T14:55:43;23.10;63.70
10300;DHT22;5195;48.562;9.192;2022-08-19T14:58:18;23.20;63.10
10300;DHT22;5195;48.562;9.192;2022-08-19T15:00:54;23.30;61.90
10300;DHT22;5195;48.562;9.192;2022-08-19T15:03:31;23.20;62.30
10300;DHT22;5195;48.562;9.192;2022-08-19T15:06:06;22.90;63.20
10300;DHT22;5195;48.562;9.192;2022-08-19T15:08:42;22.70;64.20
10300;DHT22;5195;48.562;9.192;2022-08-19T15:11:23;22.50;65.00
10300;DHT22;5195;48.562;9.192;2022-08-19T15:13:58;22.30;65.70
10300;DHT22;5195;48.562;9.192;2022-08-19T15:16:33;22.30;66.30
10300;DHT22;5195;48.562;9.192;2022-08-19T15:19:10;22.60;66.90
10300;DHT22;5195;48.562;9.192;2022-08-19T15:21:46;23.00;66.20
10300;DHT22;5195;48.562;9.192;2022-08-19T15:24:27;23.30;64.60
10300;DHT22;5195;48.562;9.192;2022-08-19T15:27:02;23.20;64.60
10300;DHT22;5195;48.562;9.192;2022-08-19T15:29:38;23.40;65.30
10300;DHT22;5195;48.562;9.192;2022-08-19T15:32:13;23.30;65.20
10300;DHT22;5195;48.562;9.192;2022-08-19T15:34:49;23.40;65.30
10300;DHT22;5195;48.562;9.192;2022-08-19T15:37:24;23.70;64.90
10300;DHT22;5195;48.562;9.192;2022-08-19T15:40:04;23.60;65.00
10300;DHT22;5195;48.562;9.192;2022-08-19T15:42:40;23.70;64.20
10300;DHT22;5195;48.562;9.192;2022-08-19T15:45:20;23.60;64.20
10300;DHT22;5195;48.562;9.192;2022-08-19T15:47:55;23.70;62.80
10300;DHT22;5195;48.562;9.192;2022-08-19T15:50:31;23.90;62.60
10300;DHT22;5195;48.562;9.192;2022-08-19T15:53:07;23.80;62.90
10300;DHT22;5195;48.562;9.192;2022-08-19T15:55:42;23.50;63.70
10300;DHT22;5195;48.562;9.192;2022-08-19T15:58:17;23.60;64.20
10300;DHT22;5195;48.562;9.192;2022-08-19T16:01:13;23.60;64.40
10300;DHT22;5195;48.562;9.192;2022-08-19T16:04:02;23.80;64.60
10300;DHT22;5195;48.562;9.192;2022-08-19T16:06:58;23.60;64.30
10300;DHT22;5195;48.562;9.192;2022-08-19T16:09:33;23.70;63.30
10300;DHT22;5195;48.562;9.192;2022-08-19T16:12:08;23.60;63.70
10300;DHT22;5195;48.562;9.192;2022-08-19T16:14:46;23.70;64.50
10300;DHT22;5195;48.562;9.192;2022-08-19T16:17:23;24.00;64.00